sensor_id;sensor_type;location;lat;lon;timestamp;P1;durP1;ratioP1;P2;durP2;ratioP2
2257;SDS011;1136;51.574;7.706;2023-11-19T00:02:14;1.30;;;1.07;;
2257;SDS011;1136;51.574;7.706;2023-11-19T00:05:19;1.40;;;1.27;;
2257;SDS011;1136;51.574;7.706;2023-11-19T00:08:23;3.73;;;2.17;;
2257;SDS011;1136;51.574;7.706;2023-11-19T00:11:28;1.27;;;1.17;;
2257;SDS011;1136;51.574;7.706;2023-11-19T00:14:33;1.30;;;1.20;;
2257;SDS011;1136;51.574;7.706;2023-11-19T00:17:42;0.90;;;0.90;;
2257;SDS011;1136;51.574;7.706;2023-11-19T00:20:51;1.03;;;0.93;;
2257;SDS011;1136;51.574;7.706;2023-11-19T00:23:55;5.67;;;1.07;;
2257;SDS011;1136;51.574;7.706;2023-11-19T00:27:01;1.63;;;0.90;;
2257;SDS011;1136;51.574;7.706;2023-11-19T00:30:06;1.00;;;1.00;;
2257;SDS011;1136;51.574;7.706;2023-11-19T00:33:11;1.23;;;1.03;;
2257;SDS011;1136;51.574;7.706;2023-11-19T00:36:16;2.13;;;1.03;;
2257;SDS011;1136;51.574;7.706;2023-11-19T00:39:20;1.10;;;1.00;;
2257;SDS011;1136;51.574;7.706;2023-11-19T00:42:24;1.20;;;1.20;;
2257;SDS011;1136;51.574;7.706;2023-11-19T00:45:28;1.03;;;1.03;;
2257;SDS011;1136;51.574;7.706;2023-11-19T00:48:33;1.13;;;1.03;;
2257;SDS011;1136;51.574;7.706;2023-11-19T00:51:37;1.57;;;1.47;;
2257;SDS011;1136;51.574;7.706;2023-11-19T00:54:41;1.63;;;1.53;;
2257;SDS011;1136;51.574;7.706;2023-11-19T00:57:46;2.20;;;1.53;;
2257;SDS011;1136;51.574;7.706;2023-11-19T01:00:50;2.10;;;1.93;;
2257;SDS011;1136;51.574;7.706;2023-11-19T01:03:54;1.30;;;1.20;;
2257;SDS011;1136;51.574;7.706;2023-11-19T01:06:59;2.60;;;1.50;;
2257;SDS011;1136;51.574;7.706;2023-11-19T01:10:03;1.60;;;1.50;;
2257;SDS011;1136;51.574;7.706;2023-11-19T01:13:07;3.57;;;1.80;;
2257;SDS011;1136;51.574;7.706;2023-11-19T01:16:12;1.70;;;1.60;;
2257;SDS011;1136;51.574;7.706;2023-11-19T01:19:17;5.90;;;2.00;;
2257;SDS011;1136;51.574;7.706;2023-11-19T01:22:21;2.00;;;1.90;;
2257;SDS011;1136;51.574;7.706;2023-11-19T01:25:25;2.50;;;2.30;;
2257;SDS011;1136;51.574;7.706;2023-11-19T01:28:29;5.10;;;2.20;;
2257;SDS011;1136;51.574;7.706;2023-11-19T01:31:35;2.30;;;2.20;;
2257;SDS011;1136;51.574;7.706;2023-11-19T01:34:39;2.70;;;2.37;;
2257;SDS011;1136;51.574;7.706;2023-11-19T01:37:45;2.53;;;2.33;;
2257;SDS011;1136;51.574;7.706;2023-11-19T01:40:49;3.10;;;2.90;;
2257;SDS011;1136;51.574;7.706;2023-11-19T01:43:53;2.67;;;2.50;;
2257;SDS011;1136;51.574;7.706;2023-11-19T01:46:58;3.07;;;2.87;;
2257;SDS011;1136;51.574;7.706;2023-11-19T01:50:02;2.83;;;2.63;;
2257;SDS011;1136;51.574;7.706;2023-11-19T01:53:10;5.80;;;3.03;;
2257;SDS011;1136;51.574;7.706;2023-11-19T01:56:17;3.53;;;3.00;;
2257;SDS011;1136;51.574;7.706;2023-11-19T01:59:21;4.00;;;3.53;;
2257;SDS011;1136;51.574;7.706;2023-11-19T02:02:30;3.57;;;2.40;;
2257;SDS011;1136;51.574;7.706;2023-11-19T02:05:35;3.80;;;3.60;;
2257;SDS011;1136;51.574;7.706;2023-11-19T02:08:39;3.33;;;3.13;;
2257;SDS011;1136;51.574;7.706;2023-11-19T02:11:43;3.60;;;3.13;;
2257;SDS011;1136;51.574;7.706;2023-11-19T02:14:48;3.50;;;3.30;;
2257;SDS011;1136;51.574;7.706;2023-11-19T02:17:52;3.53;;;2.70;;
2257;SDS011;1136;51.574;7.706;2023-11-19T02:20:59;2.60;;;2.40;;
2257;SDS011;1136;51.574;7.706;2023-11-19T02:24:05;2.70;;;2.50;;
2257;SDS011;1136;51.574;7.706;2023-11-19T02:27:17;2.57;;;2.47;;
2257;SDS011;1136;51.574;7.706;2023-11-19T02:30:26;4.20;;;2.43;;
2257;SDS011;1136;51.574;7.706;2023-11-19T02:33:31;2.43;;;2.33;;
2257;SDS011;1136;51.574;7.706;2023-11-19T02:36:36;2.33;;;2.23;;
2257;SDS011;1136;51.574;7.706;2023-11-19T02:39:40;2.90;;;2.70;;
2257;SDS011;1136;51.574;7.706;2023-11-19T02:42:45;3.00;;;2.60;;
2257;SDS011;1136;51.574;7.706;2023-11-19T02:45:49;3.60;;;2.30;;
2257;SDS011;1136;51.574;7.706;2023-11-19T02:48:53;2.77;;;2.57;;
2257;SDS011;1136;51.574;7.706;2023-11-19T02:51:57;3.13;;;2.63;;
2257;SDS011;1136;51.574;7.706;2023-11-19T02:55:03;2.80;;;2.03;;
2257;SDS011;1136;51.574;7.706;2023-11-19T02:58:12;3.00;;;2.50;;
2257;SDS011;1136;51.574;7.706;2023-11-19T03:01:24;2.97;;;2.77;;
2257;SDS011;1136;51.574;7.706;2023-11-19T03:04:35;3.07;;;2.63;;
2257;SDS011;1136;51.574;7.706;2023-11-19T03:07:39;5.13;;;3.17;;
2257;SDS011;1136;51.574;7.706;2023-11-19T03:10:43;3.87;;;2.87;;
2257;SDS011;1136;51.574;7.706;2023-11-19T03:13:49;2.80;;;2.50;;
2257;SDS011;1136;51.574;7.706;2023-11-19T03:16:53;3.30;;;2.90;;
2257;SDS011;1136;51.574;7.706;2023-11-19T03:19:58;5.33;;;2.77;;
2257;SDS011;1136;51.574;7.706;2023-11-19T03:23:01;2.97;;;2.70;;
2257;SDS011;1136;51.574;7.706;2023-11-19T03:26:06;3.43;;;2.23;;
2257;SDS011;1136;51.574;7.706;2023-11-19T03:29:10;5.20;;;2.90;;
2257;SDS011;1136;51.574;7.706;2023-11-19T03:32:14;5.00;;;2.90;;
2257;SDS011;1136;51.574;7.706;2023-11-19T03:35:18;6.87;;;3.20;;
2257;SDS011;1136;51.574;7.706;2023-11-19T03:38:23;8.73;;;2.77;;
2257;SDS011;1136;51.574;7.706;2023-11-19T03:41:28;6.63;;;2.83;;
2257;SDS011;1136;51.574;7.706;2023-11-19T03:44:44;7.00;;;2.93;;
2257;SDS011;1136;51.574;7.706;2023-11-19T03:47:48;5.50;;;2.90;;
2257;SDS011;1136;51.574;7.706;2023-11-19T03:50:54;5.73;;;3.17;;
2257;SDS011;1136;51.574;7.706;2023-11-19T03:53:58;13.50;;;3.30;;
2257;SDS011;1136;51.574;7.706;2023-11-19T03:57:03;11.53;;;3.40;;
2257;SDS011;1136;51.574;7.706;2023-11-19T04:00:08;6.33;;;3.60;;
2257;SDS011;1136;51.574;7.706;2023-11-19T04:03:17;4.93;;;3.47;;
2257;SDS011;1136;51.574;7.706;2023-11-19T04:06:23;6.00;;;3.57;;
2257;SDS011;1136;51.574;7.706;2023-11-19T04:09:27;6.60;;;3.53;;
2257;SDS011;1136;51.574;7.706;2023-11-19T04:12:31;3.93;;;3.10;;
2257;SDS011;1136;51.574;7.706;2023-11-19T04:15:35;8.20;;;3.40;;
2257;SDS011;1136;51.574;7.706;2023-11-19T04:18:40;8.47;;;3.80;;
2257;SDS011;1136;51.574;7.706;2023-11-19T04:21:44;12.60;;;4.10;;
2257;SDS011;1136;51.574;7.706;2023-11-19T04:24:48;7.40;;;5.03;;
2257;SDS011;1136;51.574;7.706;2023-11-19T04:27:52;12.13;;;4.23;;
2257;SDS011;1136;51.574;7.706;2023-11-19T04:30:57;16.57;;;4.30;;
2257;SDS011;1136;51.574;7.706;2023-11-19T04:34:04;11.77;;;4.90;;
2257;SDS011;1136;51.574;7.706;2023-11-19T04:37:08;14.27;;;4.10;;
2257;SDS011;1136;51.574;7.706;2023-11-19T04:40:16;14.97;;;4.70;;
2257;SDS011;1136;51.574;7.706;2023-11-19T04:43:22;16.23;;;3.80;;
2257;SDS011;1136;51.574;7.706;2023-11-19T04:46:26;10.47;;;4.57;;
2257;SDS011;1136;51.574;7.706;2023-11-19T04:49:31;12.27;;;4.57;;
2257;SDS011;1136;51.574;7.706;2023-11-19T04:52:36;14.33;;;4.23;;
2257;SDS011;1136;51.574;7.706;2023-11-19T04:55:42;13.30;;;4.23;;
2257;SDS011;1136;51.574;7.706;2023-11-19T04:58:46;8.30;;;3.83;;
2257;SDS011;1136;51.574;7.706;2023-11-19T05:01:50;15.27;;;4.23;;
2257;SDS011;1136;51.574;7.706;2023-11-19T05:04:55;18.30;;;4.23;;
2257;SDS011;1136;51.574;7.706;2023-11-19T05:07:59;19.40;;;3.70;;
2257;SDS011;1136;51.574;7.706;2023-11-19T05:11:03;14.83;;;4.20;;
2257;SDS011;1136;51.574;7.706;2023-11-19T05:14:07;9.20;;;3.87;;
2257;SDS011;1136;51.574;7.706;2023-11-19T05:17:13;22.37;;;4.27;;
2257;SDS011;1136;51.574;7.706;2023-11-19T05:20:17;14.27;;;3.80;;
2257;SDS011;1136;51.574;7.706;2023-11-19T05:23:21;16.97;;;5.67;;
2257;SDS011;1136;51.574;7.706;2023-11-19T05:26:25;11.03;;;3.40;;
2257;SDS011;1136;51.574;7.706;2023-11-19T05:29:30;18.03;;;4.13;;
2257;SDS011;1136;51.574;7.706;2023-11-19T05:32:34;16.53;;;4.50;;
2257;SDS011;1136;51.574;7.706;2023-11-19T05:35:39;17.40;;;5.10;;
2257;SDS011;1136;51.574;7.706;2023-11-19T05:38:43;22.23;;;5.73;;
2257;SDS011;1136;51.574;7.706;2023-11-19T05:41:48;17.07;;;4.77;;
2257;SDS011;1136;51.574;7.706;2023-11-19T05:44:52;18.10;;;4.90;;
2257;SDS011;1136;51.574;7.706;2023-11-19T05:47:57;16.10;;;4.70;;
2257;SDS011;1136;51.574;7.706;2023-11-19T05:51:01;15.13;;;5.20;;
2257;SDS011;1136;51.574;7.706;2023-11-19T05:54:09;19.33;;;4.90;;
2257;SDS011;1136;51.574;7.706;2023-11-19T05:57:14;16.93;;;5.60;;
2257;SDS011;1136;51.574;7.706;2023-11-19T06:00:22;13.43;;;4.30;;
2257;SDS011;1136;51.574;7.706;2023-11-19T06:03:26;19.00;;;5.13;;
2257;SDS011;1136;51.574;7.706;2023-11-19T06:06:31;16.77;;;5.20;;
2257;SDS011;1136;51.574;7.706;2023-11-19T06:09:35;18.07;;;6.10;;
2257;SDS011;1136;51.574;7.706;2023-11-19T06:12:42;11.90;;;4.70;;
2257;SDS011;1136;51.574;7.706;2023-11-19T06:15:47;16.87;;;4.57;;
2257;SDS011;1136;51.574;7.706;2023-11-19T06:18:51;13.00;;;5.07;;
2257;SDS011;1136;51.574;7.706;2023-11-19T06:21:57;17.47;;;5.10;;
2257;SDS011;1136;51.574;7.706;2023-11-19T06:25:01;20.50;;;5.80;;
2257;SDS011;1136;51.574;7.706;2023-11-19T06:28:11;18.43;;;5.00;;
2257;SDS011;1136;51.574;7.706;2023-11-19T06:31:15;19.07;;;5.73;;
2257;SDS011;1136;51.574;7.706;2023-11-19T06:34:20;21.40;;;5.23;;
2257;SDS011;1136;51.574;7.706;2023-11-19T06:37:24;14.50;;;5.03;;
2257;SDS011;1136;51.574;7.706;2023-11-19T06:40:28;21.17;;;6.30;;
2257;SDS011;1136;51.574;7.706;2023-11-19T06:43:34;18.23;;;5.50;;
2257;SDS011;1136;51.574;7.706;2023-11-19T06:46:40;19.10;;;4.67;;
2257;SDS011;1136;51.574;7.706;2023-11-19T06:49:45;18.37;;;4.70;;
2257;SDS011;1136;51.574;7.706;2023-11-19T06:52:49;18.77;;;5.73;;
2257;SDS011;1136;51.574;7.706;2023-11-19T06:55:53;17.33;;;5.20;;
2257;SDS011;1136;51.574;7.706;2023-11-19T06:58:58;14.50;;;5.80;;
2257;SDS011;1136;51.574;7.706;2023-11-19T07:02:06;16.77;;;4.93;;
2257;SDS011;1136;51.574;7.706;2023-11-19T07:05:10;12.33;;;5.83;;
2257;SDS011;1136;51.574;7.706;2023-11-19T07:08:16;17.13;;;5.03;;
2257;SDS011;1136;51.574;7.706;2023-11-19T07:11:20;16.40;;;5.07;;
2257;SDS011;1136;51.574;7.706;2023-11-19T07:14:24;16.87;;;4.57;;
2257;SDS011;1136;51.574;7.706;2023-11-19T07:17:30;21.30;;;5.97;;
2257;SDS011;1136;51.574;7.706;2023-11-19T07:20:34;26.43;;;6.50;;
2257;SDS011;1136;51.574;7.706;2023-11-19T07:23:38;15.07;;;5.50;;
2257;SDS011;1136;51.574;7.706;2023-11-19T07:26:43;15.07;;;5.07;;
2257;SDS011;1136;51.574;7.706;2023-11-19T07:29:47;14.90;;;5.03;;
2257;SDS011;1136;51.574;7.706;2023-11-19T07:32:51;12.13;;;5.20;;
2257;SDS011;1136;51.574;7.706;2023-11-19T07:35:56;16.93;;;5.07;;
2257;SDS011;1136;51.574;7.706;2023-11-19T07:39:00;17.77;;;4.90;;
2257;SDS011;1136;51.574;7.706;2023-11-19T07:42:05;22.63;;;5.00;;
2257;SDS011;1136;51.574;7.706;2023-11-19T07:45:09;20.83;;;5.40;;
2257;SDS011;1136;51.574;7.706;2023-11-19T07:48:13;18.37;;;5.43;;
2257;SDS011;1136;51.574;7.706;2023-11-19T07:51:19;17.07;;;4.63;;
2257;SDS011;1136;51.574;7.706;2023-11-19T07:54:23;16.70;;;5.03;;
2257;SDS011;1136;51.574;7.706;2023-11-19T07:57:27;20.57;;;4.57;;
2257;SDS011;1136;51.574;7.706;2023-11-19T08:00:34;15.80;;;6.50;;
2257;SDS011;1136;51.574;7.706;2023-11-19T08:03:38;15.87;;;5.10;;
2257;SDS011;1136;51.574;7.706;2023-11-19T08:06:44;21.73;;;4.83;;
2257;SDS011;1136;51.574;7.706;2023-11-19T08:09:49;19.80;;;5.20;;
2257;SDS011;1136;51.574;7.706;2023-11-19T08:12:53;16.80;;;5.03;;
2257;SDS011;1136;51.574;7.706;2023-11-19T08:15:57;20.43;;;5.10;;
2257;SDS011;1136;51.574;7.706;2023-11-19T08:19:02;12.53;;;4.80;;
2257;SDS011;1136;51.574;7.706;2023-11-19T08:22:13;17.97;;;4.63;;
2257;SDS011;1136;51.574;7.706;2023-11-19T08:25:17;16.07;;;5.07;;
2257;SDS011;1136;51.574;7.706;2023-11-19T08:28:21;25.13;;;6.00;;
2257;SDS011;1136;51.574;7.706;2023-11-19T08:31:25;14.77;;;5.43;;
2257;SDS011;1136;51.574;7.706;2023-11-19T08:34:29;20.03;;;5.60;;
2257;SDS011;1136;51.574;7.706;2023-11-19T08:37:34;19.93;;;4.60;;
2257;SDS011;1136;51.574;7.706;2023-11-19T08:40:40;22.67;;;5.00;;
2257;SDS011;1136;51.574;7.706;2023-11-19T08:43:45;20.13;;;5.10;;
2257;SDS011;1136;51.574;7.706;2023-11-19T08:46:49;14.83;;;3.77;;
2257;SDS011;1136;51.574;7.706;2023-11-19T08:49:54;19.33;;;5.10;;
2257;SDS011;1136;51.574;7.706;2023-11-19T08:53:01;15.30;;;5.90;;
2257;SDS011;1136;51.574;7.706;2023-11-19T08:56:06;23.00;;;5.77;;
2257;SDS011;1136;51.574;7.706;2023-11-19T08:59:10;16.93;;;4.93;;
2257;SDS011;1136;51.574;7.706;2023-11-19T09:02:14;18.90;;;5.10;;
2257;SDS011;1136;51.574;7.706;2023-11-19T09:05:19;25.50;;;6.63;;
2257;SDS011;1136;51.574;7.706;2023-11-19T09:08:23;22.70;;;5.67;;
2257;SDS011;1136;51.574;7.706;2023-11-19T09:11:27;14.93;;;5.73;;
2257;SDS011;1136;51.574;7.706;2023-11-19T09:14:32;15.50;;;4.50;;
2257;SDS011;1136;51.574;7.706;2023-11-19T09:17:36;21.47;;;6.03;;
2257;SDS011;1136;51.574;7.706;2023-11-19T09:20:41;21.47;;;5.00;;
2257;SDS011;1136;51.574;7.706;2023-11-19T09:23:45;22.40;;;5.70;;
2257;SDS011;1136;51.574;7.706;2023-11-19T09:26:50;16.43;;;5.70;;
2257;SDS011;1136;51.574;7.706;2023-11-19T09:29:54;17.63;;;5.20;;
2257;SDS011;1136;51.574;7.706;2023-11-19T09:33:01;19.40;;;5.63;;
2257;SDS011;1136;51.574;7.706;2023-11-19T09:36:06;20.33;;;5.07;;
2257;SDS011;1136;51.574;7.706;2023-11-19T09:39:11;22.73;;;5.57;;
2257;SDS011;1136;51.574;7.706;2023-11-19T09:42:16;18.00;;;4.70;;
2257;SDS011;1136;51.574;7.706;2023-11-19T09:45:23;23.97;;;7.17;;
2257;SDS011;1136;51.574;7.706;2023-11-19T09:48:32;15.73;;;6.10;;
2257;SDS011;1136;51.574;7.706;2023-11-19T09:51:37;23.00;;;8.13;;
2257;SDS011;1136;51.574;7.706;2023-11-19T09:54:41;13.00;;;4.23;;
2257;SDS011;1136;51.574;7.706;2023-11-19T09:57:45;16.90;;;5.40;;
2257;SDS011;1136;51.574;7.706;2023-11-19T10:00:50;22.00;;;5.33;;
2257;SDS011;1136;51.574;7.706;2023-11-19T10:04:15;18.20;;;5.53;;
2257;SDS011;1136;51.574;7.706;2023-11-19T10:07:21;14.83;;;4.27;;
2257;SDS011;1136;51.574;7.706;2023-11-19T10:10:29;21.63;;;4.83;;
2257;SDS011;1136;51.574;7.706;2023-11-19T10:13:36;19.77;;;5.30;;
2257;SDS011;1136;51.574;7.706;2023-11-19T10:16:43;19.33;;;5.13;;
2257;SDS011;1136;51.574;7.706;2023-11-19T10:19:49;21.63;;;4.97;;
2257;SDS011;1136;51.574;7.706;2023-11-19T10:22:53;32.20;;;5.23;;
2257;SDS011;1136;51.574;7.706;2023-11-19T10:26:04;18.33;;;4.60;;
2257;SDS011;1136;51.574;7.706;2023-11-19T10:29:10;18.47;;;4.87;;
2257;SDS011;1136;51.574;7.706;2023-11-19T10:32:17;19.10;;;6.73;;
2257;SDS011;1136;51.574;7.706;2023-11-19T10:35:30;18.00;;;4.97;;
2257;SDS011;1136;51.574;7.706;2023-11-19T10:38:34;22.90;;;4.60;;
2257;SDS011;1136;51.574;7.706;2023-11-19T10:41:41;14.77;;;5.80;;
2257;SDS011;1136;51.574;7.706;2023-11-19T10:44:46;24.73;;;5.70;;
2257;SDS011;1136;51.574;7.706;2023-11-19T10:47:51;14.73;;;5.37;;
2257;SDS011;1136;51.574;7.706;2023-11-19T10:50:55;26.37;;;6.00;;
2257;SDS011;1136;51.574;7.706;2023-11-19T10:54:06;24.20;;;6.50;;
2257;SDS011;1136;51.574;7.706;2023-11-19T10:57:10;28.03;;;5.50;;
2257;SDS011;1136;51.574;7.706;2023-11-19T11:00:16;24.60;;;4.93;;
2257;SDS011;1136;51.574;7.706;2023-11-19T11:03:25;29.40;;;6.90;;
2257;SDS011;1136;51.574;7.706;2023-11-19T11:06:33;20.07;;;5.03;;
2257;SDS011;1136;51.574;7.706;2023-11-19T11:09:38;19.33;;;5.40;;
2257;SDS011;1136;51.574;7.706;2023-11-19T11:12:42;21.63;;;6.37;;
2257;SDS011;1136;51.574;7.706;2023-11-19T11:15:48;22.60;;;5.17;;
2257;SDS011;1136;51.574;7.706;2023-11-19T11:18:52;20.60;;;4.33;;
2257;SDS011;1136;51.574;7.706;2023-11-19T11:21:57;16.43;;;4.63;;
2257;SDS011;1136;51.574;7.706;2023-11-19T11:25:05;17.60;;;5.37;;
2257;SDS011;1136;51.574;7.706;2023-11-19T11:28:24;25.27;;;5.30;;
2257;SDS011;1136;51.574;7.706;2023-11-19T11:38:08;19.13;;;5.07;;
2257;SDS011;1136;51.574;7.706;2023-11-19T11:41:22;13.90;;;5.37;;
2257;SDS011;1136;51.574;7.706;2023-11-19T11:48:15;16.70;;;5.00;;
2257;SDS011;1136;51.574;7.706;2023-11-19T11:51:21;16.63;;;6.20;;
2257;SDS011;1136;51.574;7.706;2023-11-19T11:54:46;20.07;;;5.20;;
2257;SDS011;1136;51.574;7.706;2023-11-19T11:57:51;22.63;;;4.57;;
2257;SDS011;1136;51.574;7.706;2023-11-19T12:00:56;16.27;;;4.30;;
2257;SDS011;1136;51.574;7.706;2023-11-19T12:04:01;19.40;;;5.30;;
2257;SDS011;1136;51.574;7.706;2023-11-19T12:07:08;22.90;;;5.20;;
2257;SDS011;1136;51.574;7.706;2023-11-19T12:10:16;16.77;;;4.70;;
2257;SDS011;1136;51.574;7.706;2023-11-19T12:13:20;12.60;;;4.30;;
2257;SDS011;1136;51.574;7.706;2023-11-19T12:16:27;18.60;;;5.27;;
2257;SDS011;1136;51.574;7.706;2023-11-19T12:19:33;14.43;;;4.40;;
2257;SDS011;1136;51.574;7.706;2023-11-19T12:22:37;13.67;;;4.03;;
2257;SDS011;1136;51.574;7.706;2023-11-19T12:25:42;13.00;;;4.13;;
2257;SDS011;1136;51.574;7.706;2023-11-19T12:28:58;22.47;;;5.10;;
2257;SDS011;1136;51.574;7.706;2023-11-19T12:32:03;23.23;;;5.17;;
2257;SDS011;1136;51.574;7.706;2023-11-19T12:35:10;18.80;;;4.53;;
2257;SDS011;1136;51.574;7.706;2023-11-19T12:38:19;15.70;;;4.20;;
2257;SDS011;1136;51.574;7.706;2023-11-19T12:41:24;13.70;;;5.80;;
2257;SDS011;1136;51.574;7.706;2023-11-19T12:44:38;16.63;;;4.73;;
2257;SDS011;1136;51.574;7.706;2023-11-19T12:47:43;13.00;;;3.70;;
2257;SDS011;1136;51.574;7.706;2023-11-19T12:50:54;22.03;;;5.30;;
2257;SDS011;1136;51.574;7.706;2023-11-19T12:54:07;13.10;;;4.50;;
2257;SDS011;1136;51.574;7.706;2023-11-19T12:57:13;11.30;;;3.40;;
2257;SDS011;1136;51.574;7.706;2023-11-19T13:00:21;12.87;;;4.50;;
2257;SDS011;1136;51.574;7.706;2023-11-19T13:03:29;21.57;;;4.97;;
2257;SDS011;1136;51.574;7.706;2023-11-19T13:06:44;27.90;;;5.03;;
2257;SDS011;1136;51.574;7.706;2023-11-19T13:10:08;21.30;;;5.20;;
2257;SDS011;1136;51.574;7.706;2023-11-19T13:13:12;9.57;;;3.60;;
2257;SDS011;1136;51.574;7.706;2023-11-19T13:16:16;11.80;;;4.23;;
2257;SDS011;1136;51.574;7.706;2023-11-19T13:19:23;19.73;;;5.07;;
2257;SDS011;1136;51.574;7.706;2023-11-19T13:22:29;16.17;;;4.07;;
2257;SDS011;1136;51.574;7.706;2023-11-19T13:25:34;16.97;;;4.10;;
2257;SDS011;1136;51.574;7.706;2023-11-19T13:28:37;12.37;;;4.43;;
2257;SDS011;1136;51.574;7.706;2023-11-19T13:31:42;15.47;;;4.00;;
2257;SDS011;1136;51.574;7.706;2023-11-19T13:34:46;15.30;;;4.10;;
2257;SDS011;1136;51.574;7.706;2023-11-19T13:37:50;22.60;;;6.10;;
2257;SDS011;1136;51.574;7.706;2023-11-19T13:40:56;15.43;;;3.70;;
2257;SDS011;1136;51.574;7.706;2023-11-19T13:44:00;11.57;;;5.67;;
2257;SDS011;1136;51.574;7.706;2023-11-19T13:47:04;13.10;;;4.00;;
2257;SDS011;1136;51.574;7.706;2023-11-19T13:50:10;22.33;;;4.80;;
2257;SDS011;1136;51.574;7.706;2023-11-19T13:53:15;17.53;;;3.97;;
2257;SDS011;1136;51.574;7.706;2023-11-19T13:56:19;16.90;;;4.70;;
2257;SDS011;1136;51.574;7.706;2023-11-19T13:59:23;18.67;;;5.30;;
2257;SDS011;1136;51.574;7.706;2023-11-19T14:02:27;12.87;;;4.60;;
2257;SDS011;1136;51.574;7.706;2023-11-19T14:05:32;10.23;;;4.63;;
2257;SDS011;1136;51.574;7.706;2023-11-19T14:08:39;11.13;;;4.20;;
2257;SDS011;1136;51.574;7.706;2023-11-19T14:11:43;12.20;;;4.47;;
2257;SDS011;1136;51.574;7.706;2023-11-19T14:14:47;13.20;;;4.60;;
2257;SDS011;1136;51.574;7.706;2023-11-19T14:17:52;11.17;;;3.10;;
2257;SDS011;1136;51.574;7.706;2023-11-19T14:20:56;14.10;;;3.87;;
2257;SDS011;1136;51.574;7.706;2023-11-19T14:24:00;15.90;;;4.30;;
2257;SDS011;1136;51.574;7.706;2023-11-19T14:27:04;10.03;;;3.53;;
2257;SDS011;1136;51.574;7.706;2023-11-19T14:30:09;10.27;;;3.40;;
2257;SDS011;1136;51.574;7.706;2023-11-19T14:33:15;16.20;;;4.47;;
2257;SDS011;1136;51.574;7.706;2023-11-19T14:36:19;9.80;;;4.00;;
2257;SDS011;1136;51.574;7.706;2023-11-19T14:39:23;15.90;;;4.67;;
2257;SDS011;1136;51.574;7.706;2023-11-19T14:42:28;12.67;;;4.23;;
2257;SDS011;1136;51.574;7.706;2023-11-19T14:45:32;10.37;;;3.97;;
2257;SDS011;1136;51.574;7.706;2023-11-19T14:48:48;14.83;;;3.93;;
2257;SDS011;1136;51.574;7.706;2023-11-19T14:51:54;13.77;;;4.17;;
2257;SDS011;1136;51.574;7.706;2023-11-19T14:54:58;17.47;;;3.70;;
2257;SDS011;1136;51.574;7.706;2023-11-19T14:58:03;21.50;;;4.07;;
2257;SDS011;1136;51.574;7.706;2023-11-19T15:01:14;11.87;;;3.37;;
2257;SDS011;1136;51.574;7.706;2023-11-19T15:04:19;15.60;;;4.10;;
2257;SDS011;1136;51.574;7.706;2023-11-19T15:07:23;19.70;;;3.83;;
2257;SDS011;1136;51.574;7.706;2023-11-19T15:10:27;16.27;;;4.03;;
2257;SDS011;1136;51.574;7.706;2023-11-19T15:13:31;14.83;;;4.53;;
2257;SDS011;1136;51.574;7.706;2023-11-19T15:16:37;9.63;;;3.90;;
2257;SDS011;1136;51.574;7.706;2023-11-19T15:19:47;15.27;;;4.00;;
2257;SDS011;1136;51.574;7.706;2023-11-19T15:22:54;10.97;;;3.53;;
2257;SDS011;1136;51.574;7.706;2023-11-19T15:25:59;14.40;;;3.83;;
2257;SDS011;1136;51.574;7.706;2023-11-19T15:29:06;10.13;;;3.40;;
2257;SDS011;1136;51.574;7.706;2023-11-19T15:32:10;16.87;;;4.47;;
2257;SDS011;1136;51.574;7.706;2023-11-19T15:35:14;8.13;;;3.43;;
2257;SDS011;1136;51.574;7.706;2023-11-19T15:38:19;10.17;;;3.07;;
2257;SDS011;1136;51.574;7.706;2023-11-19T15:41:23;8.53;;;3.70;;
2257;SDS011;1136;51.574;7.706;2023-11-19T15:44:27;12.17;;;3.80;;
2257;SDS011;1136;51.574;7.706;2023-11-19T15:47:33;7.13;;;3.27;;
2257;SDS011;1136;51.574;7.706;2023-11-19T15:50:39;17.50;;;5.10;;
2257;SDS011;1136;51.574;7.706;2023-11-19T15:53:43;13.60;;;3.80;;
2257;SDS011;1136;51.574;7.706;2023-11-19T15:56:47;12.73;;;3.93;;
2257;SDS011;1136;51.574;7.706;2023-11-19T15:59:53;14.60;;;3.60;;
2257;SDS011;1136;51.574;7.706;2023-11-19T16:02:57;12.13;;;3.93;;
2257;SDS011;1136;51.574;7.706;2023-11-19T16:06:01;10.43;;;3.30;;
2257;SDS011;1136;51.574;7.706;2023-11-19T16:09:13;9.20;;;3.53;;
2257;SDS011;1136;51.574;7.706;2023-11-19T16:12:18;10.53;;;3.17;;
2257;SDS011;1136;51.574;7.706;2023-11-19T16:15:23;11.40;;;3.70;;
2257;SDS011;1136;51.574;7.706;2023-11-19T16:18:29;10.43;;;3.27;;
2257;SDS011;1136;51.574;7.706;2023-11-19T16:21:34;12.10;;;4.47;;
2257;SDS011;1136;51.574;7.706;2023-11-19T16:24:39;10.43;;;4.00;;
2257;SDS011;1136;51.574;7.706;2023-11-19T16:27:43;16.50;;;4.30;;
2257;SDS011;1136;51.574;7.706;2023-11-19T16:30:47;10.83;;;3.93;;
2257;SDS011;1136;51.574;7.706;2023-11-19T16:33:51;9.80;;;3.73;;
2257;SDS011;1136;51.574;7.706;2023-11-19T16:36:57;12.87;;;3.90;;
2257;SDS011;1136;51.574;7.706;2023-11-19T16:40:02;10.23;;;3.07;;
2257;SDS011;1136;51.574;7.706;2023-11-19T16:43:07;10.87;;;3.60;;
2257;SDS011;1136;51.574;7.706;2023-11-19T16:46:11;20.60;;;4.00;;
2257;SDS011;1136;51.574;7.706;2023-11-19T16:49:15;13.77;;;4.10;;
2257;SDS011;1136;51.574;7.706;2023-11-19T16:52:20;8.53;;;3.43;;
2257;SDS011;1136;51.574;7.706;2023-11-19T16:55:25;17.30;;;4.47;;
2257;SDS011;1136;51.574;7.706;2023-11-19T16:58:29;13.77;;;4.17;;
2257;SDS011;1136;51.574;7.706;2023-11-19T17:01:35;16.30;;;5.97;;
2257;SDS011;1136;51.574;7.706;2023-11-19T17:04:42;13.23;;;4.20;;
2257;SDS011;1136;51.574;7.706;2023-11-19T17:07:46;18.93;;;4.20;;
2257;SDS011;1136;51.574;7.706;2023-11-19T17:10:53;11.40;;;4.13;;
2257;SDS011;1136;51.574;7.706;2023-11-19T17:13:58;9.40;;;4.17;;
2257;SDS011;1136;51.574;7.706;2023-11-19T17:17:02;13.97;;;4.87;;
2257;SDS011;1136;51.574;7.706;2023-11-19T17:20:07;10.00;;;4.07;;
2257;SDS011;1136;51.574;7.706;2023-11-19T17:23:13;13.53;;;4.17;;
2257;SDS011;1136;51.574;7.706;2023-11-19T17:26:17;15.53;;;4.33;;
2257;SDS011;1136;51.574;7.706;2023-11-19T17:29:21;15.63;;;4.53;;
2257;SDS011;1136;51.574;7.706;2023-11-19T17:32:26;21.60;;;4.50;;
2257;SDS011;1136;51.574;7.706;2023-11-19T17:35:34;14.73;;;5.03;;
2257;SDS011;1136;51.574;7.706;2023-11-19T17:38:38;13.40;;;5.13;;
2257;SDS011;1136;51.574;7.706;2023-11-19T17:41:42;9.67;;;3.67;;
2257;SDS011;1136;51.574;7.706;2023-11-19T17:44:47;13.50;;;3.93;;
2257;SDS011;1136;51.574;7.706;2023-11-19T17:47:50;12.53;;;4.60;;
2257;SDS011;1136;51.574;7.706;2023-11-19T17:50:56;15.90;;;3.93;;
2257;SDS011;1136;51.574;7.706;2023-11-19T17:54:01;13.90;;;4.70;;
2257;SDS011;1136;51.574;7.706;2023-11-19T17:57:05;17.23;;;4.53;;
2257;SDS011;1136;51.574;7.706;2023-11-19T18:00:10;15.47;;;4.57;;
2257;SDS011;1136;51.574;7.706;2023-11-19T18:03:18;15.57;;;4.37;;
2257;SDS011;1136;51.574;7.706;2023-11-19T18:06:26;13.40;;;5.23;;
2257;SDS011;1136;51.574;7.706;2023-11-19T18:09:29;17.77;;;4.90;;
2257;SDS011;1136;51.574;7.706;2023-11-19T18:12:33;26.47;;;4.80;;
2257;SDS011;1136;51.574;7.706;2023-11-19T18:15:38;16.70;;;4.70;;
2257;SDS011;1136;51.574;7.706;2023-11-19T18:18:42;13.47;;;4.97;;
2257;SDS011;1136;51.574;7.706;2023-11-19T18:21:46;15.53;;;4.97;;
2257;SDS011;1136;51.574;7.706;2023-11-19T18:24:50;18.50;;;4.70;;
2257;SDS011;1136;51.574;7.706;2023-11-19T18:27:54;21.10;;;5.73;;
2257;SDS011;1136;51.574;7.706;2023-11-19T18:30:58;12.13;;;4.23;;
2257;SDS011;1136;51.574;7.706;2023-11-19T18:34:03;18.03;;;4.83;;
2257;SDS011;1136;51.574;7.706;2023-11-19T18:37:08;16.17;;;5.43;;
2257;SDS011;1136;51.574;7.706;2023-11-19T18:40:12;22.33;;;5.43;;
2257;SDS011;1136;51.574;7.706;2023-11-19T18:43:18;19.17;;;4.70;;
2257;SDS011;1136;51.574;7.706;2023-11-19T18:46:22;14.30;;;3.30;;
2257;SDS011;1136;51.574;7.706;2023-11-19T18:49:26;16.33;;;4.77;;
2257;SDS011;1136;51.574;7.706;2023-11-19T18:52:30;17.30;;;5.97;;
2257;SDS011;1136;51.574;7.706;2023-11-19T18:55:35;17.87;;;5.10;;
2257;SDS011;1136;51.574;7.706;2023-11-19T18:58:39;14.53;;;5.30;;
2257;SDS011;1136;51.574;7.706;2023-11-19T19:01:43;17.73;;;5.67;;
2257;SDS011;1136;51.574;7.706;2023-11-19T19:04:48;14.27;;;4.83;;
2257;SDS011;1136;51.574;7.706;2023-11-19T19:07:53;21.67;;;4.50;;
2257;SDS011;1136;51.574;7.706;2023-11-19T19:11:00;9.23;;;4.53;;